createdAt,value
2022-08-31T00:00:34.683Z,5.90
2022-08-31T00:03:20.572Z,6.80
2022-08-31T00:05:48.945Z,7.70
2022-08-31T00:08:17.739Z,8.88
2022-08-31T00:10:49.684Z,9.55
2022-08-31T00:13:18.481Z,9.25
2022-08-31T00:15:47.196Z,11.13
2022-08-31T00:18:16.528Z,12.30
2022-08-31T00:20:45.297Z,13.15
2022-08-31T00:23:16.186Z,11.73
2022-08-31T00:25:46.603Z,11.30
2022-08-31T00:28:17.412Z,11.45
2022-08-31T00:30:46.495Z,12.82
2022-08-31T00:33:17.160Z,13.80
2022-08-31T00:35:46.132Z,14.52
2022-08-31T00:38:15.707Z,12.45
2022-08-31T00:40:47.096Z,11.45
2022-08-31T00:43:39.124Z,13.90
2022-08-31T00:46:08.284Z,14.73
2022-08-31T00:48:39.129Z,12.30
2022-08-31T00:51:07.927Z,12.80
2022-08-31T00:53:39.869Z,13.30
2022-08-31T00:56:10.207Z,12.00
2022-08-31T00:59:29.165Z,12.30
2022-08-31T01:01:59.206Z,14.02
2022-08-31T01:04:27.824Z,14.40
2022-08-31T01:06:56.362Z,13.95
2022-08-31T01:09:27.156Z,13.43
2022-08-31T01:11:55.527Z,14.15
2022-08-31T01:14:23.994Z,13.60
2022-08-31T01:16:55.275Z,13.10
2022-08-31T01:19:31.309Z,14.30
2022-08-31T01:22:08.147Z,13.55
2022-08-31T01:24:41.086Z,12.75
2022-08-31T01:27:10.371Z,12.98
2022-08-31T01:29:38.999Z,14.50
2022-08-31T01:32:08.643Z,13.10
2022-08-31T01:34:36.957Z,14.35
2022-08-31T01:37:05.891Z,12.30
2022-08-31T01:39:34.153Z,13.55
2022-08-31T01:42:03.694Z,12.50
2022-08-31T01:44:32.122Z,12.73
2022-08-31T01:47:00.537Z,12.90
2022-08-31T01:49:29.295Z,14.15
2022-08-31T01:51:57.738Z,12.82
2022-08-31T01:54:27.766Z,14.13
2022-08-31T01:56:56.321Z,12.90
2022-08-31T01:59:42.852Z,13.52
2022-08-31T02:02:46.445Z,13.93
2022-08-31T02:05:15.631Z,13.93
2022-08-31T02:07:46.244Z,14.15
2022-08-31T02:10:14.759Z,14.68
2022-08-31T02:12:43.181Z,13.57
2022-08-31T02:15:12.975Z,13.32
2022-08-31T02:17:42.356Z,13.85
2022-08-31T02:20:13.913Z,14.00
2022-08-31T02:22:42.652Z,14.05
2022-08-31T02:25:12.163Z,14.38
2022-08-31T02:27:40.333Z,13.10
2022-08-31T02:30:15.148Z,13.27
2022-08-31T02:32:43.430Z,13.85
2022-08-31T02:35:11.917Z,13.98
2022-08-31T02:37:40.356Z,13.05
2022-08-31T02:40:12.186Z,12.80
2022-08-31T02:42:53.723Z,12.75
2022-08-31T02:45:28.405Z,12.25
2022-08-31T02:48:03.811Z,11.23
2022-08-31T02:50:40.218Z,12.20
2022-08-31T02:53:08.560Z,12.45
2022-08-31T02:55:37.840Z,12.57
2022-08-31T02:58:07.133Z,11.95
2022-08-31T03:00:37.239Z,11.55
2022-08-31T03:03:05.884Z,13.30
2022-08-31T03:05:34.317Z,12.00
2022-08-31T03:08:02.675Z,11.90
2022-08-31T03:10:30.961Z,12.60
2022-08-31T03:12:59.236Z,12.90
2022-08-31T03:15:28.464Z,12.98
2022-08-31T03:17:58.819Z,12.52
2022-08-31T03:20:28.787Z,13.63
2022-08-31T03:22:57.453Z,12.20
2022-08-31T03:25:27.970Z,12.95
2022-08-31T03:27:56.420Z,13.32
2022-08-31T03:30:25.617Z,14.02
2022-08-31T03:33:08.831Z,12.70
2022-08-31T03:35:37.521Z,11.07
2022-08-31T03:38:06.122Z,12.18
2022-08-31T03:40:34.469Z,11.30
2022-08-31T03:43:03.559Z,13.38
2022-08-31T03:45:35.222Z,12.00
2022-08-31T03:48:11.403Z,11.18
2022-08-31T03:50:44.278Z,9.85
2022-08-31T03:53:22.633Z,10.18
2022-08-31T03:55:54.001Z,9.13
2022-08-31T03:58:22.164Z,9.55
2022-08-31T04:00:50.592Z,9.93
2022-08-31T04:03:38.731Z,8.82
2022-08-31T04:06:34.300Z,9.25
2022-08-31T04:09:21.302Z,8.90
2022-08-31T04:12:11.663Z,8.70
2022-08-31T04:15:02.637Z,9.82
2022-08-31T04:17:46.642Z,10.30
2022-08-31T04:20:41.298Z,13.70
2022-08-31T04:23:11.278Z,11.30
2022-08-31T04:25:47.302Z,9.95
2022-08-31T04:28:18.586Z,9.65
2022-08-31T04:30:48.528Z,9.30
2022-08-31T04:33:18.695Z,8.90
2022-08-31T04:35:47.179Z,9.65
2022-08-31T04:38:16.758Z,8.70
2022-08-31T04:40:46.736Z,7.93
2022-08-31T04:43:14.934Z,8.30
2022-08-31T04:45:46.045Z,9.70
2022-08-31T04:48:15.382Z,9.18
2022-08-31T04:50:44.498Z,8.57
2022-08-31T04:53:13.316Z,7.88
2022-08-31T04:55:43.590Z,7.78
2022-08-31T04:58:13.988Z,8.07
2022-08-31T05:00:43.382Z,7.45
2022-08-31T05:03:26.028Z,8.73
2022-08-31T05:05:57.069Z,7.80
2022-08-31T05:08:25.814Z,8.27
2022-08-31T05:10:56.060Z,9.43
2022-08-31T05:13:24.731Z,7.18
2022-08-31T05:15:55.007Z,7.35
2022-08-31T05:18:26.402Z,8.77
2022-08-31T05:21:10.069Z,9.10
2022-08-31T05:23:38.818Z,7.43
2022-08-31T05:26:10.024Z,7.50
2022-08-31T05:28:39.238Z,7.35
2022-08-31T05:31:07.683Z,8.32
2022-08-31T05:33:42.012Z,8.48
2022-08-31T05:36:10.650Z,7.78
2022-08-31T05:38:41.059Z,7.75
2022-08-31T05:41:11.277Z,7.50
2022-08-31T05:43:40.755Z,7.72
2022-08-31T05:46:11.424Z,7.72
2022-08-31T05:48:40.662Z,7.50
2022-08-31T05:51:16.859Z,8.40
2022-08-31T05:53:45.564Z,7.22
2022-08-31T05:56:19.238Z,8.20
2022-08-31T05:58:50.033Z,9.27
2022-08-31T06:01:21.143Z,9.13
2022-08-31T06:04:15.779Z,8.40
2022-08-31T06:06:45.350Z,9.68
2022-08-31T06:09:15.555Z,8.95
2022-08-31T06:11:47.414Z,9.05
2022-08-31T06:14:19.563Z,8.60
2022-08-31T06:16:49.877Z,8.43
2022-08-31T06:19:20.935Z,8.60
2022-08-31T06:21:51.483Z,7.70
2022-08-31T06:24:25.862Z,7.03
2022-08-31T06:26:58.881Z,7.40
2022-08-31T06:29:34.187Z,8.30
2022-08-31T06:32:07.855Z,9.75
2022-08-31T06:34:37.499Z,8.52
2022-08-31T06:37:10.919Z,8.38
2022-08-31T06:40:04.171Z,9.35
2022-08-31T06:42:42.946Z,10.02
2022-08-31T06:45:28.724Z,9.15
2022-08-31T06:48:22.904Z,9.32
2022-08-31T06:50:57.171Z,9.07
2022-08-31T06:53:26.261Z,9.05
2022-08-31T06:56:16.468Z,7.78
2022-08-31T06:59:09.746Z,7.72
2022-08-31T07:01:52.301Z,7.72
2022-08-31T07:04:25.119Z,8.10
2022-08-31T07:06:53.375Z,8.20
2022-08-31T07:09:21.784Z,7.80
2022-08-31T07:11:52.227Z,8.52
2022-08-31T07:14:25.198Z,8.75
2022-08-31T07:16:56.926Z,9.00
2022-08-31T07:19:26.249Z,9.32
2022-08-31T07:21:57.110Z,9.88
2022-08-31T07:24:29.081Z,9.68
2022-08-31T07:26:59.394Z,9.93
2022-08-31T07:29:41.350Z,8.80
2022-08-31T07:32:14.523Z,8.65
2022-08-31T07:34:44.081Z,8.55
2022-08-31T07:37:45.020Z,8.07
2022-08-31T07:40:30.886Z,8.63
2022-08-31T07:43:02.133Z,9.63
2022-08-31T07:45:37.239Z,8.98
2022-08-31T07:48:08.061Z,9.45
2022-08-31T07:50:56.610Z,9.60
2022-08-31T07:53:47.777Z,9.30
2022-08-31T07:56:34.865Z,9.32
2022-08-31T07:59:17.656Z,9.18
2022-08-31T08:01:48.882Z,9.13
2022-08-31T08:04:25.307Z,9.40
2022-08-31T08:07:15.125Z,8.73
2022-08-31T08:10:02.322Z,9.95
2022-08-31T08:13:05.253Z,10.18
2022-08-31T08:15:45.640Z,9.70
2022-08-31T08:18:15.433Z,9.40
2022-08-31T08:20:49.384Z,9.18
2022-08-31T08:23:28.134Z,8.68
2022-08-31T08:26:20.984Z,8.80
2022-08-31T08:29:09.178Z,9.25
2022-08-31T08:31:43.577Z,10.10
2022-08-31T08:34:13.418Z,10.30
2022-08-31T08:36:41.519Z,10.25
2022-08-31T08:39:12.924Z,10.40
2022-08-31T08:41:46.006Z,9.18
2022-08-31T08:44:17.911Z,9.88
2022-08-31T08:46:52.156Z,10.25
2022-08-31T08:49:31.179Z,9.70
2022-08-31T08:52:04.247Z,10.90
2022-08-31T08:54:35.586Z,10.32
2022-08-31T08:57:12.826Z,9.00
2022-08-31T08:59:43.186Z,9.35
2022-08-31T09:02:15.337Z,10.50
2022-08-31T09:05:04.447Z,9.82
2022-08-31T09:08:10.370Z,10.55
2022-08-31T09:10:45.656Z,9.88
2022-08-31T09:13:26.786Z,11.20
2022-08-31T09:16:10.326Z,10.50
2022-08-31T09:18:48.129Z,10.55
2022-08-31T09:21:24.701Z,11.38
2022-08-31T09:24:02.451Z,10.55
2022-08-31T09:26:54.355Z,11.00
2022-08-31T09:29:34.499Z,10.98
2022-08-31T09:32:07.150Z,10.90
2022-08-31T09:34:37.685Z,10.75
2022-08-31T09:37:16.389Z,11.70
2022-08-31T09:39:47.719Z,11.10
2022-08-31T09:42:29.073Z,12.32
2022-08-31T09:45:00.224Z,13.20
2022-08-31T09:47:48.611Z,11.57
2022-08-31T09:50:40.164Z,12.30
2022-08-31T09:53:32.886Z,11.68
2022-08-31T09:56:21.134Z,14.43
2022-08-31T09:58:52.274Z,15.70
2022-08-31T10:01:25.303Z,16.70
2022-08-31T10:04:09.675Z,14.77
2022-08-31T10:06:47.317Z,13.93
2022-08-31T10:09:33.517Z,12.18
2022-08-31T10:12:05.385Z,11.27
2022-08-31T10:14:41.293Z,11.15
2022-08-31T10:17:15.232Z,11.57
2022-08-31T10:19:53.402Z,13.60
2022-08-31T10:22:30.792Z,12.80
2022-08-31T10:25:12.285Z,12.07
2022-08-31T10:27:45.564Z,13.00
2022-08-31T10:30:22.611Z,14.63
2022-08-31T10:32:57.487Z,13.40
2022-08-31T10:35:37.428Z,13.43
2022-08-31T10:38:20.050Z,13.18
2022-08-31T10:40:52.595Z,11.52
2022-08-31T10:43:23.894Z,11.10
2022-08-31T10:45:53.424Z,10.23
2022-08-31T10:48:24.744Z,12.30
2022-08-31T10:51:04.022Z,12.82
2022-08-31T10:53:50.663Z,11.50
2022-08-31T10:56:26.266Z,10.50
2022-08-31T10:59:04.621Z,11.25
2022-08-31T11:01:40.091Z,10.57
2022-08-31T11:04:29.501Z,10.50
2022-08-31T11:07:07.383Z,10.48
2022-08-31T11:09:42.558Z,11.43
2022-08-31T11:12:18.432Z,10.63
2022-08-31T11:15:18.171Z,10.32
2022-08-31T11:18:05.425Z,10.77
2022-08-31T11:20:52.177Z,11.27
2022-08-31T11:23:45.254Z,8.85
2022-08-31T11:26:42.192Z,11.63
2022-08-31T11:29:28.974Z,10.38
2022-08-31T11:32:00.958Z,9.35
2022-08-31T11:34:34.687Z,9.70
2022-08-31T11:37:04.913Z,10.55
2022-08-31T11:39:47.715Z,10.98
2022-08-31T11:42:48.634Z,10.20
2022-08-31T11:45:30.941Z,10.43
2022-08-31T11:47:59.509Z,10.35
2022-08-31T11:51:03.034Z,10.32
2022-08-31T11:53:36.319Z,10.57
2022-08-31T11:56:06.788Z,11.10
2022-08-31T11:58:39.546Z,10.70
2022-08-31T12:01:39.371Z,10.38
2022-08-31T12:04:47.590Z,10.60
2022-08-31T12:07:18.276Z,9.27
2022-08-31T12:10:24.126Z,10.02
2022-08-31T12:13:36.605Z,9.38
2022-08-31T12:16:30.236Z,10.60
2022-08-31T12:19:34.660Z,10.02
2022-08-31T12:22:28.607Z,8.73
2022-08-31T12:25:11.670Z,10.98
2022-08-31T12:27:48.362Z,11.23
2022-08-31T12:30:21.104Z,11.35
2022-08-31T12:32:59.194Z,9.57
2022-08-31T12:35:31.429Z,9.75
2022-08-31T12:38:02.827Z,9.70
2022-08-31T12:40:34.347Z,11.10
2022-08-31T12:43:10.382Z,10.35
2022-08-31T12:45:57.446Z,10.85
2022-08-31T12:48:38.259Z,11.57
2022-08-31T12:51:20.087Z,10.65
2022-08-31T12:54:07.236Z,9.27
2022-08-31T12:56:42.710Z,9.43
2022-08-31T12:59:40.729Z,9.18
2022-08-31T13:02:16.577Z,8.68
2022-08-31T13:04:46.706Z,9.40
2022-08-31T13:07:20.275Z,9.43
2022-08-31T13:09:48.748Z,9.63
2022-08-31T13:12:24.180Z,8.30
2022-08-31T13:14:52.153Z,8.68
2022-08-31T13:17:22.255Z,8.40
2022-08-31T13:19:52.665Z,8.80
2022-08-31T13:22:29.830Z,8.27
2022-08-31T13:25:11.669Z,8.70
2022-08-31T13:27:47.694Z,8.00
2022-08-31T13:30:19.655Z,8.47
2022-08-31T13:32:51.251Z,9.93
2022-08-31T13:35:22.006Z,9.50
2022-08-31T13:38:00.455Z,8.70
2022-08-31T13:40:30.214Z,9.70
2022-08-31T13:42:59.634Z,9.50
2022-08-31T13:45:30.511Z,10.55
2022-08-31T13:48:00.784Z,10.00
2022-08-31T13:50:35.349Z,9.90
2022-08-31T13:53:36.056Z,10.30
2022-08-31T13:55:55.342Z,10.80
2022-08-31T13:58:27.913Z,9.73
2022-08-31T14:01:20.824Z,9.63
2022-08-31T14:03:57.196Z,10.40
2022-08-31T14:06:27.759Z,10.27
2022-08-31T14:09:03.613Z,10.37
2022-08-31T14:11:35.792Z,10.40
2022-08-31T14:14:07.298Z,10.23
2022-08-31T14:16:38.539Z,10.48
2022-08-31T14:19:07.413Z,9.65
2022-08-31T14:21:38.414Z,10.90
2022-08-31T14:24:10.500Z,10.55
2022-08-31T14:26:41.820Z,11.13
2022-08-31T14:29:12.328Z,8.88
2022-08-31T14:31:45.263Z,9.93
2022-08-31T14:34:23.228Z,12.40
2022-08-31T14:36:55.184Z,11.70
2022-08-31T14:39:30.830Z,9.70
2022-08-31T14:42:01.514Z,9.50
2022-08-31T14:44:32.320Z,10.30
2022-08-31T14:47:00.763Z,10.40
2022-08-31T14:49:32.706Z,10.20
2022-08-31T14:52:06.503Z,10.37
2022-08-31T14:54:37.792Z,12.70
2022-08-31T14:57:11.715Z,11.60
2022-08-31T14:59:43.297Z,10.87
2022-08-31T15:02:13.032Z,11.37
2022-08-31T15:04:46.058Z,10.77
2022-08-31T15:07:15.468Z,10.37
2022-08-31T15:09:46.903Z,8.80
2022-08-31T15:12:16.428Z,9.30
2022-08-31T15:14:47.334Z,8.17
2022-08-31T15:17:18.951Z,7.47
2022-08-31T15:19:53.126Z,9.47
2022-08-31T15:22:22.214Z,9.00
2022-08-31T15:24:51.635Z,9.43
2022-08-31T15:27:20.719Z,8.67
2022-08-31T15:29:51.056Z,8.10
2022-08-31T15:32:19.408Z,9.20
2022-08-31T15:34:53.488Z,8.97
2022-08-31T15:37:22.487Z,8.90
2022-08-31T15:39:52.043Z,9.53
2022-08-31T15:42:21.502Z,10.03
2022-08-31T15:44:55.909Z,10.60
2022-08-31T15:47:43.620Z,10.10
2022-08-31T15:50:12.262Z,11.93
2022-08-31T15:52:43.907Z,11.63
2022-08-31T15:55:23.609Z,11.37
2022-08-31T15:57:54.126Z,12.10
2022-08-31T16:00:23.748Z,11.00
2022-08-31T16:02:57.376Z,10.10
2022-08-31T16:05:28.600Z,9.57
2022-08-31T16:07:58.175Z,9.80
2022-08-31T16:10:30.399Z,8.07
2022-08-31T16:12:58.607Z,8.43
2022-08-31T16:15:32.780Z,8.70
2022-08-31T16:18:03.154Z,9.10
2022-08-31T16:20:31.401Z,9.43
2022-08-31T16:23:00.720Z,8.43
2022-08-31T16:25:47.617Z,9.73
2022-08-31T16:28:18.305Z,10.80
2022-08-31T16:30:46.535Z,8.97
2022-08-31T16:33:14.729Z,9.50
2022-08-31T16:35:46.062Z,8.70
2022-08-31T16:38:14.709Z,10.80
2022-08-31T16:40:44.764Z,9.43
2022-08-31T16:43:13.144Z,11.00
2022-08-31T16:45:42.045Z,10.73
2022-08-31T16:48:29.567Z,11.13
2022-08-31T16:51:02.071Z,11.90
2022-08-31T16:53:31.540Z,9.47
2022-08-31T16:56:03.991Z,10.93
2022-08-31T16:58:51.035Z,9.77
2022-08-31T17:01:23.682Z,10.50
2022-08-31T17:03:55.840Z,11.10
2022-08-31T17:06:24.772Z,10.53
2022-08-31T17:08:56.958Z,11.30
2022-08-31T17:11:31.298Z,10.70
2022-08-31T17:14:01.847Z,11.73
2022-08-31T17:16:34.692Z,12.17
2022-08-31T17:19:07.474Z,12.37
2022-08-31T17:21:46.163Z,13.10
2022-08-31T17:24:16.107Z,14.23
2022-08-31T17:26:45.641Z,14.27
2022-08-31T17:29:13.872Z,13.70
2022-08-31T17:31:46.858Z,13.73
2022-08-31T17:34:17.991Z,13.67
2022-08-31T17:36:48.602Z,15.40
2022-08-31T17:39:19.021Z,13.40
2022-08-31T17:41:50.522Z,13.33
2022-08-31T17:44:21.432Z,12.48
2022-08-31T17:46:52.357Z,13.40
2022-08-31T17:49:46.308Z,13.27
2022-08-31T17:52:15.369Z,13.33
2022-08-31T17:54:45.341Z,14.80
2022-08-31T17:57:16.491Z,14.70
2022-08-31T17:59:48.743Z,15.85
2022-08-31T18:02:23.147Z,14.90
2022-08-31T18:04:52.645Z,14.60
2022-08-31T18:07:21.450Z,14.20
2022-08-31T18:09:50.137Z,14.52
2022-08-31T18:12:22.054Z,14.68
2022-08-31T18:14:50.719Z,15.23
2022-08-31T18:17:22.153Z,14.60
2022-08-31T18:19:50.747Z,12.73
2022-08-31T18:22:19.846Z,12.50
2022-08-31T18:24:48.209Z,13.90
2022-08-31T18:27:16.678Z,14.85
2022-08-31T18:29:46.686Z,13.25
2022-08-31T18:32:15.776Z,16.73
2022-08-31T18:34:47.107Z,14.63
2022-08-31T18:37:25.857Z,18.60
2022-08-31T18:40:12.042Z,16.27
2022-08-31T18:42:57.665Z,16.50
2022-08-31T18:45:27.732Z,17.60
2022-08-31T18:48:21.277Z,18.00
2022-08-31T18:50:46.895Z,20.48
2022-08-31T18:53:28.623Z,18.92
2022-08-31T18:55:57.658Z,21.00
2022-08-31T18:58:25.802Z,20.23
2022-08-31T19:00:59.286Z,20.20
2022-08-31T19:03:28.498Z,19.17
2022-08-31T19:05:57.122Z,20.65
2022-08-31T19:08:26.334Z,20.33
2022-08-31T19:10:57.983Z,20.55
2022-08-31T19:13:32.086Z,18.83
2022-08-31T19:16:10.734Z,20.73
2022-08-31T19:18:45.148Z,21.08
2022-08-31T19:21:15.718Z,19.52
2022-08-31T19:23:44.137Z,20.25
2022-08-31T19:26:18.161Z,18.27
2022-08-31T19:28:48.938Z,18.13
2022-08-31T19:31:20.959Z,22.10
2022-08-31T19:33:49.535Z,20.80
2022-08-31T19:36:18.423Z,19.60
2022-08-31T19:38:47.346Z,20.60
2022-08-31T19:41:17.572Z,16.58
2022-08-31T19:43:54.430Z,18.13
2022-08-31T19:46:27.059Z,18.98
2022-08-31T19:48:59.228Z,17.80
2022-08-31T19:51:29.955Z,18.10
2022-08-31T19:53:59.815Z,18.48
2022-08-31T19:56:31.117Z,17.88
2022-08-31T19:59:00.587Z,19.55
2022-08-31T20:01:34.130Z,18.30
2022-08-31T20:04:04.124Z,19.35
2022-08-31T20:06:32.702Z,19.00
2022-08-31T20:09:01.214Z,17.02
2022-08-31T20:11:31.444Z,18.90
2022-08-31T20:14:00.153Z,17.20
2022-08-31T20:16:34.004Z,16.55
2022-08-31T20:19:04.120Z,16.85
2022-08-31T20:21:34.723Z,16.80
2022-08-31T20:24:06.936Z,15.98
2022-08-31T20:26:46.116Z,16.35
2022-08-31T20:29:18.126Z,14.60
2022-08-31T20:31:50.073Z,15.75
2022-08-31T20:34:21.875Z,16.17
2022-08-31T20:36:52.288Z,16.13
2022-08-31T20:39:22.946Z,16.17
2022-08-31T20:41:54.347Z,15.20
2022-08-31T20:44:24.530Z,15.02
2022-08-31T20:47:10.933Z,13.85
2022-08-31T20:49:41.328Z,14.68
2022-08-31T20:52:11.700Z,15.38
2022-08-31T20:54:40.283Z,13.70
2022-08-31T20:57:10.297Z,13.50
2022-08-31T20:59:38.870Z,13.43
2022-08-31T21:02:09.370Z,12.88
2022-08-31T21:04:40.395Z,12.60
2022-08-31T21:07:13.176Z,12.55
2022-08-31T21:09:42.556Z,13.05
2022-08-31T21:12:14.245Z,11.93
2022-08-31T21:14:47.392Z,12.45
2022-08-31T21:17:17.104Z,12.40
2022-08-31T21:19:45.719Z,11.20
2022-08-31T21:22:17.312Z,11.95
2022-08-31T21:24:46.709Z,10.43
2022-08-31T21:27:18.019Z,11.15
2022-08-31T21:29:50.029Z,10.65
2022-08-31T21:32:19.651Z,10.95
2022-08-31T21:34:48.655Z,10.93
2022-08-31T21:37:16.976Z,10.50
2022-08-31T21:39:45.153Z,10.10
2022-08-31T21:42:13.474Z,10.63
2022-08-31T21:44:41.766Z,10.93
2022-08-31T21:47:14.799Z,11.35
2022-08-31T21:49:45.577Z,10.38
2022-08-31T21:52:13.933Z,9.98
2022-08-31T21:54:44.763Z,11.18
2022-08-31T21:57:14.256Z,10.43
2022-08-31T21:59:43.022Z,11.52
2022-08-31T22:02:12.707Z,10.45
2022-08-31T22:04:45.296Z,10.77
2022-08-31T22:07:14.821Z,11.40
2022-08-31T22:09:43.865Z,11.20
2022-08-31T22:12:12.927Z,11.35
2022-08-31T22:14:41.831Z,10.20
2022-08-31T22:17:10.953Z,9.15
2022-08-31T22:19:40.022Z,11.10
2022-08-31T22:22:12.650Z,10.40
2022-08-31T22:24:42.279Z,10.85
2022-08-31T22:27:12.723Z,10.02
2022-08-31T22:29:41.558Z,11.30
2022-08-31T22:32:13.485Z,10.70
2022-08-31T22:34:43.380Z,9.90
2022-08-31T22:37:14.203Z,9.50
2022-08-31T22:39:43.625Z,9.52
2022-08-31T22:42:12.119Z,11.30
2022-08-31T22:44:42.581Z,10.25
2022-08-31T22:47:10.799Z,10.48
2022-08-31T22:49:39.155Z,10.73
2022-08-31T22:52:07.574Z,10.23
2022-08-31T22:54:37.125Z,12.10
2022-08-31T22:57:05.872Z,9.95
2022-08-31T22:59:33.981Z,10.38
2022-08-31T23:02:05.032Z,10.35
2022-08-31T23:04:35.639Z,10.63
2022-08-31T23:07:04.895Z,10.57
2022-08-31T23:09:34.508Z,11.68
2022-08-31T23:12:06.257Z,10.50
2022-08-31T23:14:34.482Z,10.82
2022-08-31T23:17:08.408Z,10.70
2022-08-31T23:19:38.950Z,10.75
2022-08-31T23:22:09.548Z,10.55
2022-08-31T23:24:42.200Z,10.20
2022-08-31T23:27:13.013Z,10.75
2022-08-31T23:29:45.981Z,10.50
2022-08-31T23:32:18.182Z,9.77
2022-08-31T23:34:49.741Z,9.05
2022-08-31T23:37:19.023Z,10.60
2022-08-31T23:39:47.281Z,10.07
2022-08-31T23:42:17.912Z,10.93
2022-08-31T23:44:47.938Z,10.00
2022-08-31T23:47:19.180Z,11.80
2022-08-31T23:49:51.185Z,10.35
2022-08-31T23:52:21.549Z,10.55
2022-08-31T23:54:52.229Z,11.05
2022-08-31T23:57:32.388Z,11.32
